Южный

Карта отелей и гостиниц, располагающихся рядом с аэропортом Южный :

Южный
Иваново
Ивановская область 56° 56' 33" N, 40° 55' 55.4412" E
Код аэродрома ИКАО
UUBI
Код аэродрома RU
УУБИ
Координаты
N56.94250° E040.93207°
Превышение над уровнем моря
125
Основная полоса
29/11
Курс магнитный
289/109
Длина основной ВПП
2500
Ширина основной ВПП
42
Покрытие основной ВПП
Твёрдое (асфальтобетон)
Освещение ВПП
Постоянное
Тип: 
Аэродром
Класс аэродрома: 
Принадлежность: 
ГА
Статус: 
Действующий
Сайт: 
http://ivavia.ru/
E-mail аэродрома: 
Страна: 
Россия
Регион: 
Ивановская область
Город: 
Иваново
Дополнительная информация: 
Эксплуатант: ООО «Центр-Авиа». ДПРМ: 326-ДД/АЛ. БПРМ: 670-Д/Л. Нкр.=(100/500)м. Типы принимаемых самолетов: Ан-12, Ан-24, Ан-28, Ан-30, Ил-76, Ту-134, Ту-154, Ту-204, Ту-214, Як-40, Як-42, А-319-100, А-320, B-737, B-757-200, Beechcraft-350, Bombardier CRJ-100,-200, Sukhoi SuperJet 100, Embraer EMB 120 Brasilia, Falcon-7x, Pilatus PC-12, SAAB 340, SAAB-2000 и др. ВС 3-4 кл., и классом ниже).


Найти трансфер

С помощью этой формы Вы можете найти трансфер из аэропорта Южный в город, аэропорт или вокзал:

Погода в аэропортах:

Авиационная погода в Бухте Провидения

Погода METAR: 
UHMD 200430Z 20003MPS M0500 FG VV001 01/01 Q1029 RMK QBB050 MT OBSC QFE771/1028
Время наблюдения
2022-05-20T04:30:00Z
Температура C
1.0
Точка росы
1.0
Направление ветра
200
Скорость ветра (узлы)
6
Метео видимость
0.31
Облачность
OVX
Нижняя граница облачности (футы)
0
Явления погоды
FG
Условия полета
LIFR
Аэропорт подробнее: 
FG – туман (небо не видно, температура воздуха выше нуля или ноль);

Авиационная погода в Волгограде

Регион: 
Погода METAR: 
URWW 212300Z 19004MPS 9000 -RA OVC005 11/11 Q1003 R24/290060 TEMPO 1000 TSRAGR BKN020CB RMK OBST OBSC
Время наблюдения
2022-05-21T23:00:00Z
Температура C
11.0
Точка росы
11.0
Направление ветра
190
Скорость ветра (узлы)
8
Метео видимость
5.59
Облачность
OVC
Нижняя граница облачности (футы)
500
Явления погоды
-RA
Условия полета
IFR
Аэропорт подробнее: 
OVC – сплошная облачность;
-RA - слабый дождь;

Авиационная погода в Курске

Погода METAR: 
UUOK 212300Z AUTO 10002MPS 060V130 5000 -RA 11/11 Q0998 RMK QBB090 QFE731/0974
Время наблюдения
2022-05-21T23:00:00Z
Температура C
11.0
Точка росы
11.0
Направление ветра
100
Скорость ветра (узлы)
4
Метео видимость
3.11
Облачность
Нижняя граница облачности (футы)
Явления погоды
-RA
Условия полета
Аэропорт подробнее: 
-RA - слабый дождь;

Авиационная погода в Белгороде

Регион: 
Погода METAR: 
UUOB 212300Z 03001MPS 3000 -SHRA BR OVC010CB 13/12 Q0997 R11/290060 NOSIG
Время наблюдения
2022-05-21T23:00:00Z
Температура C
13.0
Точка росы
12.0
Направление ветра
30
Скорость ветра (узлы)
2
Метео видимость
1.86
Облачность
OVC
Нижняя граница облачности (футы)
1000
Явления погоды
-SHRA BR
Условия полета
IFR
Аэропорт подробнее: 
OVC – сплошная облачность;
-SHRA - слабый ливневой дождь; BR – дымка (видимость от 1 до 9 км);